sensor_id;sensor_type;location;lat;lon;timestamp;temperature;humidity
78611;SHT30;67932;50.474;4.436;2023-06-14T00:00:01;20.06;49.69
78611;SHT30;67932;50.474;4.436;2023-06-14T00:02:30;20.06;50.05
78611;SHT30;67932;50.474;4.436;2023-06-14T00:04:56;20.10;49.81
78611;SHT30;67932;50.474;4.436;2023-06-14T00:07:38;20.05;49.85
78611;SHT30;67932;50.474;4.436;2023-06-14T00:10:04;20.03;50.57
78611;SHT30;67932;50.474;4.436;2023-06-14T00:12:31;20.12;50.49
78611;SHT30;67932;50.474;4.436;2023-06-14T00:14:57;20.19;48.44
78611;SHT30;67932;50.474;4.436;2023-06-14T00:17:24;20.02;50.27
78611;SHT30;67932;50.474;4.436;2023-06-14T00:19:50;20.00;50.20
78611;SHT30;67932;50.474;4.436;2023-06-14T00:22:17;19.85;50.99
78611;SHT30;67932;50.474;4.436;2023-06-14T00:24:43;19.82;50.87
78611;SHT30;67932;50.474;4.436;2023-06-14T00:27:09;19.83;49.94
78611;SHT30;67932;50.474;4.436;2023-06-14T00:29:35;19.86;49.49
78611;SHT30;67932;50.474;4.436;2023-06-14T00:32:02;19.85;50.27
78611;SHT30;67932;50.474;4.436;2023-06-14T00:34:28;19.79;50.86
78611;SHT30;67932;50.474;4.436;2023-06-14T00:36:54;19.94;49.58
78611;SHT30;67932;50.474;4.436;2023-06-14T00:39:21;19.96;48.71
78611;SHT30;67932;50.474;4.436;2023-06-14T00:41:47;19.96;48.61
78611;SHT30;67932;50.474;4.436;2023-06-14T00:44:17;20.02;48.37
78611;SHT30;67932;50.474;4.436;2023-06-14T00:46:47;20.02;48.07
78611;SHT30;67932;50.474;4.436;2023-06-14T00:49:15;19.92;49.41
78611;SHT30;67932;50.474;4.436;2023-06-14T00:51:42;19.69;49.98
78611;SHT30;67932;50.474;4.436;2023-06-14T00:54:08;19.66;50.35
78611;SHT30;67932;50.474;4.436;2023-06-14T00:56:39;19.52;50.45
78611;SHT30;67932;50.474;4.436;2023-06-14T00:59:06;19.52;51.20
78611;SHT30;67932;50.474;4.436;2023-06-14T01:01:32;19.61;49.74
78611;SHT30;67932;50.474;4.436;2023-06-14T01:04:00;19.62;49.72
78611;SHT30;67932;50.474;4.436;2023-06-14T01:09:48;19.59;50.09
78611;SHT30;67932;50.474;4.436;2023-06-14T01:12:33;19.57;50.44
78611;SHT30;67932;50.474;4.436;2023-06-14T01:15:02;19.44;51.04
78611;SHT30;67932;50.474;4.436;2023-06-14T01:17:30;19.36;51.37
78611;SHT30;67932;50.474;4.436;2023-06-14T01:20:02;19.28;51.50
78611;SHT30;67932;50.474;4.436;2023-06-14T01:22:30;19.25;51.37
78611;SHT30;67932;50.474;4.436;2023-06-14T01:24:56;19.21;51.79
78611;SHT30;67932;50.474;4.436;2023-06-14T01:27:24;19.21;50.68
78611;SHT30;67932;50.474;4.436;2023-06-14T01:29:58;19.22;50.87
78611;SHT30;67932;50.474;4.436;2023-06-14T01:32:27;19.19;51.45
78611;SHT30;67932;50.474;4.436;2023-06-14T01:34:54;19.10;52.45
78611;SHT30;67932;50.474;4.436;2023-06-14T01:37:21;19.04;52.53
78611;SHT30;67932;50.474;4.436;2023-06-14T01:39:48;19.05;52.55
78611;SHT30;67932;50.474;4.436;2023-06-14T01:42:18;19.01;52.44
78611;SHT30;67932;50.474;4.436;2023-06-14T01:44:45;18.94;52.42
78611;SHT30;67932;50.474;4.436;2023-06-14T01:47:12;18.91;52.79
78611;SHT30;67932;50.474;4.436;2023-06-14T01:49:39;18.84;52.96
78611;SHT30;67932;50.474;4.436;2023-06-14T01:52:06;18.84;52.81
78611;SHT30;67932;50.474;4.436;2023-06-14T01:54:35;18.81;52.27
78611;SHT30;67932;50.474;4.436;2023-06-14T01:57:04;18.75;52.78
78611;SHT30;67932;50.474;4.436;2023-06-14T01:59:30;18.68;53.14
78611;SHT30;67932;50.474;4.436;2023-06-14T02:01:57;18.60;53.30
78611;SHT30;67932;50.474;4.436;2023-06-14T02:04:23;18.57;53.64
78611;SHT30;67932;50.474;4.436;2023-06-14T02:06:49;18.63;53.51
78611;SHT30;67932;50.474;4.436;2023-06-14T02:09:16;18.73;53.25
78611;SHT30;67932;50.474;4.436;2023-06-14T02:11:43;18.88;51.31
78611;SHT30;67932;50.474;4.436;2023-06-14T02:14:09;18.94;50.66
78611;SHT30;67932;50.474;4.436;2023-06-14T02:16:38;18.94;50.76
78611;SHT30;67932;50.474;4.436;2023-06-14T02:19:05;18.97;50.73
78611;SHT30;67932;50.474;4.436;2023-06-14T02:21:31;19.03;50.84
78611;SHT30;67932;50.474;4.436;2023-06-14T02:23:58;19.04;50.33
78611;SHT30;67932;50.474;4.436;2023-06-14T02:26:24;18.98;50.25
78611;SHT30;67932;50.474;4.436;2023-06-14T02:28:51;18.84;50.63
78611;SHT30;67932;50.474;4.436;2023-06-14T02:31:17;18.80;50.77
78611;SHT30;67932;50.474;4.436;2023-06-14T02:33:44;18.81;50.86
78611;SHT30;67932;50.474;4.436;2023-06-14T02:36:10;18.78;51.14
78611;SHT30;67932;50.474;4.436;2023-06-14T02:38:36;18.78;51.11
78611;SHT30;67932;50.474;4.436;2023-06-14T02:41:03;18.74;51.80
78611;SHT30;67932;50.474;4.436;2023-06-14T02:43:30;18.71;51.42
78611;SHT30;67932;50.474;4.436;2023-06-14T02:45:56;18.67;51.40
78611;SHT30;67932;50.474;4.436;2023-06-14T02:48:22;18.63;51.34
78611;SHT30;67932;50.474;4.436;2023-06-14T02:50:48;18.59;52.09
78611;SHT30;67932;50.474;4.436;2023-06-14T02:53:15;18.59;52.17
78611;SHT30;67932;50.474;4.436;2023-06-14T02:55:41;18.56;52.11
78611;SHT30;67932;50.474;4.436;2023-06-14T02:58:08;18.50;52.03
78611;SHT30;67932;50.474;4.436;2023-06-14T03:00:34;18.52;51.91
78611;SHT30;67932;50.474;4.436;2023-06-14T03:03:02;18.37;52.03
78611;SHT30;67932;50.474;4.436;2023-06-14T03:05:28;18.17;52.40
78611;SHT30;67932;50.474;4.436;2023-06-14T03:07:54;18.13;52.18
78611;SHT30;67932;50.474;4.436;2023-06-14T03:10:21;18.13;52.17
78611;SHT30;67932;50.474;4.436;2023-06-14T03:12:48;18.14;52.32
78611;SHT30;67932;50.474;4.436;2023-06-14T03:15:14;18.09;52.48
78611;SHT30;67932;50.474;4.436;2023-06-14T03:17:41;18.00;52.92
78611;SHT30;67932;50.474;4.436;2023-06-14T03:20:11;17.96;53.11
78611;SHT30;67932;50.474;4.436;2023-06-14T03:22:37;17.89;53.61
78611;SHT30;67932;50.474;4.436;2023-06-14T03:25:05;17.93;53.34
78611;SHT30;67932;50.474;4.436;2023-06-14T03:27:32;18.00;53.04
78611;SHT30;67932;50.474;4.436;2023-06-14T03:29:58;17.90;53.62
78611;SHT30;67932;50.474;4.436;2023-06-14T03:32:24;17.90;53.61
78611;SHT30;67932;50.474;4.436;2023-06-14T03:34:50;17.78;53.88
78611;SHT30;67932;50.474;4.436;2023-06-14T03:37:17;17.79;53.97
78611;SHT30;67932;50.474;4.436;2023-06-14T03:39:43;17.76;54.26
78611;SHT30;67932;50.474;4.436;2023-06-14T03:42:13;17.76;54.15
78611;SHT30;67932;50.474;4.436;2023-06-14T03:44:40;17.74;54.34
78611;SHT30;67932;50.474;4.436;2023-06-14T03:47:06;17.75;54.48
78611;SHT30;67932;50.474;4.436;2023-06-14T03:49:32;17.72;54.54
78611;SHT30;67932;50.474;4.436;2023-06-14T03:51:59;17.69;54.58
78611;SHT30;67932;50.474;4.436;2023-06-14T03:54:25;17.61;54.87
78611;SHT30;67932;50.474;4.436;2023-06-14T03:56:54;17.59;54.91
78611;SHT30;67932;50.474;4.436;2023-06-14T03:59:23;17.64;54.99
78611;SHT30;67932;50.474;4.436;2023-06-14T04:01:49;17.56;54.96
78611;SHT30;67932;50.474;4.436;2023-06-14T04:04:16;17.56;55.12
78611;SHT30;67932;50.474;4.436;2023-06-14T04:06:42;17.56;55.15
78611;SHT30;67932;50.474;4.436;2023-06-14T04:09:09;17.56;55.14
78611;SHT30;67932;50.474;4.436;2023-06-14T04:11:35;17.55;54.93
78611;SHT30;67932;50.474;4.436;2023-06-14T04:14:02;17.51;55.16
78611;SHT30;67932;50.474;4.436;2023-06-14T04:16:29;17.56;55.36
78611;SHT30;67932;50.474;4.436;2023-06-14T04:18:55;17.55;55.20
78611;SHT30;67932;50.474;4.436;2023-06-14T04:21:24;17.49;55.19
78611;SHT30;67932;50.474;4.436;2023-06-14T04:23:51;17.45;55.34
78611;SHT30;67932;50.474;4.436;2023-06-14T04:26:18;17.52;55.48
78611;SHT30;67932;50.474;4.436;2023-06-14T04:28:45;17.48;55.52
78611;SHT30;67932;50.474;4.436;2023-06-14T04:31:13;17.39;55.81
78611;SHT30;67932;50.474;4.436;2023-06-14T04:33:40;17.45;55.45
78611;SHT30;67932;50.474;4.436;2023-06-14T04:36:12;17.49;55.27
78611;SHT30;67932;50.474;4.436;2023-06-14T04:38:39;17.48;55.85
78611;SHT30;67932;50.474;4.436;2023-06-14T04:41:05;17.38;56.01
78611;SHT30;67932;50.474;4.436;2023-06-14T04:43:32;17.44;55.77
78611;SHT30;67932;50.474;4.436;2023-06-14T04:46:04;17.46;55.79
78611;SHT30;67932;50.474;4.436;2023-06-14T04:48:31;17.54;55.66
78611;SHT30;67932;50.474;4.436;2023-06-14T04:51:01;17.65;55.21
78611;SHT30;67932;50.474;4.436;2023-06-14T04:53:30;17.68;55.21
78611;SHT30;67932;50.474;4.436;2023-06-14T04:55:57;17.64;55.44
78611;SHT30;67932;50.474;4.436;2023-06-14T04:58:24;17.54;55.63
78611;SHT30;67932;50.474;4.436;2023-06-14T05:00:51;17.68;55.30
78611;SHT30;67932;50.474;4.436;2023-06-14T05:03:17;17.72;55.67
78611;SHT30;67932;50.474;4.436;2023-06-14T05:05:44;17.62;56.07
78611;SHT30;67932;50.474;4.436;2023-06-14T05:08:11;17.48;56.23
78611;SHT30;67932;50.474;4.436;2023-06-14T05:10:37;17.51;56.31
78611;SHT30;67932;50.474;4.436;2023-06-14T05:13:04;17.69;55.65
78611;SHT30;67932;50.474;4.436;2023-06-14T05:15:30;17.78;56.02
78611;SHT30;67932;50.474;4.436;2023-06-14T05:17:56;17.81;55.62
78611;SHT30;67932;50.474;4.436;2023-06-14T05:20:24;17.89;56.05
78611;SHT30;67932;50.474;4.436;2023-06-14T05:22:56;17.90;55.55
78611;SHT30;67932;50.474;4.436;2023-06-14T05:25:23;17.89;55.50
78611;SHT30;67932;50.474;4.436;2023-06-14T05:27:49;17.96;55.79
78611;SHT30;67932;50.474;4.436;2023-06-14T05:30:16;18.03;56.08
78611;SHT30;67932;50.474;4.436;2023-06-14T05:32:42;18.08;55.40
78611;SHT30;67932;50.474;4.436;2023-06-14T05:35:10;18.13;55.56
78611;SHT30;67932;50.474;4.436;2023-06-14T05:37:37;18.12;55.60
78611;SHT30;67932;50.474;4.436;2023-06-14T05:40:05;18.14;55.97
78611;SHT30;67932;50.474;4.436;2023-06-14T05:42:32;18.30;55.71
78611;SHT30;67932;50.474;4.436;2023-06-14T05:44:59;18.30;55.58
78611;SHT30;67932;50.474;4.436;2023-06-14T05:47:26;18.33;55.47
78611;SHT30;67932;50.474;4.436;2023-06-14T05:49:53;18.39;55.41
78611;SHT30;67932;50.474;4.436;2023-06-14T05:52:22;18.59;54.97
78611;SHT30;67932;50.474;4.436;2023-06-14T05:54:52;18.61;56.06
78611;SHT30;67932;50.474;4.436;2023-06-14T05:57:22;18.43;57.88
78611;SHT30;67932;50.474;4.436;2023-06-14T05:59:55;18.47;57.98
78611;SHT30;67932;50.474;4.436;2023-06-14T06:02:25;18.61;57.54
78611;SHT30;67932;50.474;4.436;2023-06-14T06:04:52;18.63;57.25
78611;SHT30;67932;50.474;4.436;2023-06-14T06:07:20;18.67;57.00
78611;SHT30;67932;50.474;4.436;2023-06-14T06:09:46;18.75;56.65
78611;SHT30;67932;50.474;4.436;2023-06-14T06:12:13;18.87;56.58
78611;SHT30;67932;50.474;4.436;2023-06-14T06:14:41;18.97;55.94
78611;SHT30;67932;50.474;4.436;2023-06-14T06:17:11;19.21;54.44
78611;SHT30;67932;50.474;4.436;2023-06-14T06:19:39;19.34;54.52
78611;SHT30;67932;50.474;4.436;2023-06-14T06:22:06;19.52;53.46
78611;SHT30;67932;50.474;4.436;2023-06-14T06:24:32;19.78;52.03
78611;SHT30;67932;50.474;4.436;2023-06-14T06:26:59;19.87;52.77
78611;SHT30;67932;50.474;4.436;2023-06-14T06:29:26;20.02;50.89
78611;SHT30;67932;50.474;4.436;2023-06-14T06:31:52;20.02;52.38
78611;SHT30;67932;50.474;4.436;2023-06-14T06:34:19;20.23;51.94
78611;SHT30;67932;50.474;4.436;2023-06-14T06:36:45;20.24;52.54
78611;SHT30;67932;50.474;4.436;2023-06-14T06:39:11;20.27;52.11
78611;SHT30;67932;50.474;4.436;2023-06-14T06:41:38;20.29;52.23
78611;SHT30;67932;50.474;4.436;2023-06-14T06:44:08;20.36;52.07
78611;SHT30;67932;50.474;4.436;2023-06-14T06:46:37;20.44;52.67
78611;SHT30;67932;50.474;4.436;2023-06-14T06:49:10;20.48;52.55
78611;SHT30;67932;50.474;4.436;2023-06-14T06:51:57;20.47;52.51
78611;SHT30;67932;50.474;4.436;2023-06-14T06:54:24;20.56;53.30
78611;SHT30;67932;50.474;4.436;2023-06-14T06:56:51;20.60;52.80
78611;SHT30;67932;50.474;4.436;2023-06-14T06:59:17;20.71;52.78
78611;SHT30;67932;50.474;4.436;2023-06-14T07:01:47;20.74;52.46
78611;SHT30;67932;50.474;4.436;2023-06-14T07:04:17;20.78;52.45
78611;SHT30;67932;50.474;4.436;2023-06-14T07:06:44;20.78;52.63
78611;SHT30;67932;50.474;4.436;2023-06-14T07:09:10;20.91;52.13
78611;SHT30;67932;50.474;4.436;2023-06-14T07:11:43;20.85;51.84
78611;SHT30;67932;50.474;4.436;2023-06-14T07:14:10;20.92;51.78
78611;SHT30;67932;50.474;4.436;2023-06-14T07:16:37;20.99;52.26
78611;SHT30;67932;50.474;4.436;2023-06-14T07:19:03;21.04;52.07
78611;SHT30;67932;50.474;4.436;2023-06-14T07:21:30;21.09;51.93
78611;SHT30;67932;50.474;4.436;2023-06-14T07:23:57;21.17;51.36
78611;SHT30;67932;50.474;4.436;2023-06-14T07:26:23;21.21;51.76
78611;SHT30;67932;50.474;4.436;2023-06-14T07:28:50;21.31;51.17
78611;SHT30;67932;50.474;4.436;2023-06-14T07:31:16;21.39;49.02
78611;SHT30;67932;50.474;4.436;2023-06-14T07:33:45;21.41;48.62
78611;SHT30;67932;50.474;4.436;2023-06-14T07:36:12;21.45;47.63
78611;SHT30;67932;50.474;4.436;2023-06-14T07:38:38;21.53;47.62
78611;SHT30;67932;50.474;4.436;2023-06-14T07:41:06;21.61;47.10
78611;SHT30;67932;50.474;4.436;2023-06-14T07:43:33;21.76;47.02
78611;SHT30;67932;50.474;4.436;2023-06-14T07:45:59;21.82;47.21
78611;SHT30;67932;50.474;4.436;2023-06-14T07:48:26;21.86;47.82
78611;SHT30;67932;50.474;4.436;2023-06-14T07:50:52;21.93;47.21
78611;SHT30;67932;50.474;4.436;2023-06-14T07:53:19;22.02;46.01
78611;SHT30;67932;50.474;4.436;2023-06-14T07:55:45;22.14;45.84
78611;SHT30;67932;50.474;4.436;2023-06-14T07:58:13;22.23;46.53
78611;SHT30;67932;50.474;4.436;2023-06-14T08:00:40;22.27;46.22
78611;SHT30;67932;50.474;4.436;2023-06-14T08:03:06;22.41;45.25
78611;SHT30;67932;50.474;4.436;2023-06-14T08:05:32;22.54;45.83
78611;SHT30;67932;50.474;4.436;2023-06-14T08:07:59;22.63;46.97
78611;SHT30;67932;50.474;4.436;2023-06-14T08:10:25;22.70;47.25
78611;SHT30;67932;50.474;4.436;2023-06-14T08:12:51;22.74;47.41
78611;SHT30;67932;50.474;4.436;2023-06-14T08:15:18;22.83;47.10
78611;SHT30;67932;50.474;4.436;2023-06-14T08:17:45;22.91;46.43
78611;SHT30;67932;50.474;4.436;2023-06-14T08:20:12;22.90;46.59
78611;SHT30;67932;50.474;4.436;2023-06-14T08:22:39;23.01;46.13
78611;SHT30;67932;50.474;4.436;2023-06-14T08:25:08;23.00;46.01
78611;SHT30;67932;50.474;4.436;2023-06-14T08:27:35;23.08;44.72
78611;SHT30;67932;50.474;4.436;2023-06-14T08:30:01;23.12;43.80
78611;SHT30;67932;50.474;4.436;2023-06-14T08:32:29;23.15;44.47
78611;SHT30;67932;50.474;4.436;2023-06-14T08:34:55;23.26;45.03
78611;SHT30;67932;50.474;4.436;2023-06-14T08:37:21;23.31;45.11
78611;SHT30;67932;50.474;4.436;2023-06-14T08:39:47;23.43;44.80
78611;SHT30;67932;50.474;4.436;2023-06-14T08:42:14;23.43;42.15
78611;SHT30;67932;50.474;4.436;2023-06-14T08:44:47;23.53;42.08
78611;SHT30;67932;50.474;4.436;2023-06-14T08:47:16;23.66;41.63
78611;SHT30;67932;50.474;4.436;2023-06-14T08:49:55;23.73;41.53
78611;SHT30;67932;50.474;4.436;2023-06-14T08:52:36;23.82;40.30
78611;SHT30;67932;50.474;4.436;2023-06-14T08:55:11;23.97;41.27
78611;SHT30;67932;50.474;4.436;2023-06-14T08:57:39;23.97;40.07
78611;SHT30;67932;50.474;4.436;2023-06-14T09:00:16;23.97;39.96
78611;SHT30;67932;50.474;4.436;2023-06-14T09:02:58;24.06;37.89
78611;SHT30;67932;50.474;4.436;2023-06-14T10:56:51;27.52;31.41
78611;SHT30;67932;50.474;4.436;2023-06-14T10:59:22;27.39;31.85
78611;SHT30;67932;50.474;4.436;2023-06-14T11:02:29;27.25;31.61
78611;SHT30;67932;50.474;4.436;2023-06-14T11:05:00;26.78;32.27
78611;SHT30;67932;50.474;4.436;2023-06-14T11:07:58;26.75;32.91
78611;SHT30;67932;50.474;4.436;2023-06-14T11:10:39;26.36;33.59
78611;SHT30;67932;50.474;4.436;2023-06-14T11:13:09;26.27;33.28
78611;SHT30;67932;50.474;4.436;2023-06-14T11:16:01;26.24;32.77
78611;SHT30;67932;50.474;4.436;2023-06-14T11:21:34;26.04;32.18
78611;SHT30;67932;50.474;4.436;2023-06-14T11:32:20;26.04;32.30
78611;SHT30;67932;50.474;4.436;2023-06-14T11:34:50;26.04;32.43
78611;SHT30;67932;50.474;4.436;2023-06-14T11:37:17;25.86;32.69
78611;SHT30;67932;50.474;4.436;2023-06-14T11:39:46;25.85;33.18
78611;SHT30;67932;50.474;4.436;2023-06-14T11:42:16;26.16;32.40
78611;SHT30;67932;50.474;4.436;2023-06-14T11:44:46;26.16;33.12
78611;SHT30;67932;50.474;4.436;2023-06-14T11:47:13;26.33;32.96
78611;SHT30;67932;50.474;4.436;2023-06-14T11:49:44;26.51;32.92
78611;SHT30;67932;50.474;4.436;2023-06-14T11:52:11;26.39;32.10
78611;SHT30;67932;50.474;4.436;2023-06-14T11:54:37;26.73;31.86
78611;SHT30;67932;50.474;4.436;2023-06-14T11:57:11;27.12;31.45
78611;SHT30;67932;50.474;4.436;2023-06-14T11:59:40;28.39;28.88
78611;SHT30;67932;50.474;4.436;2023-06-14T12:02:09;28.78;28.39
78611;SHT30;67932;50.474;4.436;2023-06-14T12:04:37;28.78;28.60
78611;SHT30;67932;50.474;4.436;2023-06-14T12:07:10;28.00;29.63
78611;SHT30;67932;50.474;4.436;2023-06-14T12:12:28;27.69;30.77
78611;SHT30;67932;50.474;4.436;2023-06-14T12:15:40;27.94;30.19
78611;SHT30;67932;50.474;4.436;2023-06-14T12:18:34;28.28;29.43
78611;SHT30;67932;50.474;4.436;2023-06-14T12:21:11;28.91;29.88
78611;SHT30;67932;50.474;4.436;2023-06-14T12:27:22;29.01;29.57
78611;SHT30;67932;50.474;4.436;2023-06-14T12:30:06;30.07;27.89
78611;SHT30;67932;50.474;4.436;2023-06-14T12:32:55;30.87;26.55
78611;SHT30;67932;50.474;4.436;2023-06-14T12:39:01;32.05;24.67
78611;SHT30;67932;50.474;4.436;2023-06-14T12:44:30;32.19;24.96
78611;SHT30;67932;50.474;4.436;2023-06-14T12:47:00;32.71;23.95
78611;SHT30;67932;50.474;4.436;2023-06-14T12:49:34;33.02;24.18
78611;SHT30;67932;50.474;4.436;2023-06-14T12:52:01;33.36;23.48
78611;SHT30;67932;50.474;4.436;2023-06-14T12:54:27;33.35;23.46
78611;SHT30;67932;50.474;4.436;2023-06-14T12:56:55;33.58;22.89
78611;SHT30;67932;50.474;4.436;2023-06-14T12:59:21;33.42;23.19
78611;SHT30;67932;50.474;4.436;2023-06-14T13:01:48;32.80;23.35
78611;SHT30;67932;50.474;4.436;2023-06-14T13:04:16;32.70;23.88
78611;SHT30;67932;50.474;4.436;2023-06-14T13:06:42;33.46;22.98
78611;SHT30;67932;50.474;4.436;2023-06-14T13:09:09;33.80;22.52
78611;SHT30;67932;50.474;4.436;2023-06-14T13:11:36;33.76;22.17
78611;SHT30;67932;50.474;4.436;2023-06-14T13:14:04;33.73;22.21
78611;SHT30;67932;50.474;4.436;2023-06-14T13:16:31;33.72;22.38
78611;SHT30;67932;50.474;4.436;2023-06-14T13:18:58;33.52;23.15
78611;SHT30;67932;50.474;4.436;2023-06-14T13:21:25;34.13;22.93
78611;SHT30;67932;50.474;4.436;2023-06-14T13:23:51;34.26;22.29
78611;SHT30;67932;50.474;4.436;2023-06-14T13:26:18;33.82;22.16
78611;SHT30;67932;50.474;4.436;2023-06-14T13:28:47;33.65;22.88
78611;SHT30;67932;50.474;4.436;2023-06-14T13:31:14;33.97;21.97
78611;SHT30;67932;50.474;4.436;2023-06-14T13:33:41;34.23;21.88
78611;SHT30;67932;50.474;4.436;2023-06-14T13:36:07;34.30;21.94
78611;SHT30;67932;50.474;4.436;2023-06-14T13:38:34;34.39;21.88
78611;SHT30;67932;50.474;4.436;2023-06-14T13:41:02;33.83;23.31
78611;SHT30;67932;50.474;4.436;2023-06-14T13:43:29;34.10;21.87
78611;SHT30;67932;50.474;4.436;2023-06-14T13:45:56;34.70;21.60
78611;SHT30;67932;50.474;4.436;2023-06-14T13:48:22;34.64;21.50
78611;SHT30;67932;50.474;4.436;2023-06-14T13:50:49;34.19;21.95
78611;SHT30;67932;50.474;4.436;2023-06-14T13:53:15;34.24;21.02
78611;SHT30;67932;50.474;4.436;2023-06-14T13:55:41;33.83;21.63
78611;SHT30;67932;50.474;4.436;2023-06-14T13:58:08;34.12;21.32
78611;SHT30;67932;50.474;4.436;2023-06-14T14:00:34;33.80;22.07
78611;SHT30;67932;50.474;4.436;2023-06-14T14:03:02;34.32;21.69
78611;SHT30;67932;50.474;4.436;2023-06-14T14:05:29;34.92;21.26
78611;SHT30;67932;50.474;4.436;2023-06-14T14:07:57;34.72;21.64
78611;SHT30;67932;50.474;4.436;2023-06-14T14:10:26;34.68;21.81
78611;SHT30;67932;50.474;4.436;2023-06-14T14:12:52;33.93;21.96
78611;SHT30;67932;50.474;4.436;2023-06-14T14:15:20;34.41;22.45
78611;SHT30;67932;50.474;4.436;2023-06-14T14:17:47;34.30;22.11
78611;SHT30;67932;50.474;4.436;2023-06-14T14:20:13;34.36;21.87
78611;SHT30;67932;50.474;4.436;2023-06-14T14:22:44;34.39;22.16
78611;SHT30;67932;50.474;4.436;2023-06-14T14:25:11;34.53;21.55
78611;SHT30;67932;50.474;4.436;2023-06-14T14:27:37;34.39;22.31
78611;SHT30;67932;50.474;4.436;2023-06-14T14:30:04;34.41;21.45
78611;SHT30;67932;50.474;4.436;2023-06-14T14:32:31;34.40;21.26
78611;SHT30;67932;50.474;4.436;2023-06-14T14:34:57;34.35;21.12
78611;SHT30;67932;50.474;4.436;2023-06-14T14:37:24;34.64;20.47
78611;SHT30;67932;50.474;4.436;2023-06-14T14:39:50;34.59;20.91
78611;SHT30;67932;50.474;4.436;2023-06-14T14:42:17;34.60;20.35
78611;SHT30;67932;50.474;4.436;2023-06-14T14:44:44;34.43;20.12
78611;SHT30;67932;50.474;4.436;2023-06-14T14:47:10;34.33;20.47
78611;SHT30;67932;50.474;4.436;2023-06-14T14:49:37;34.17;20.24
78611;SHT30;67932;50.474;4.436;2023-06-14T14:52:03;34.50;19.94
78611;SHT30;67932;50.474;4.436;2023-06-14T14:54:29;34.33;20.23
78611;SHT30;67932;50.474;4.436;2023-06-14T14:56:56;34.79;19.91
78611;SHT30;67932;50.474;4.436;2023-06-14T14:59:23;34.67;19.69
78611;SHT30;67932;50.474;4.436;2023-06-14T15:01:49;34.64;19.93
78611;SHT30;67932;50.474;4.436;2023-06-14T15:04:16;34.80;20.20
78611;SHT30;67932;50.474;4.436;2023-06-14T15:06:43;34.63;19.84
78611;SHT30;67932;50.474;4.436;2023-06-14T15:09:09;34.59;19.99
78611;SHT30;67932;50.474;4.436;2023-06-14T15:11:37;34.81;19.73
78611;SHT30;67932;50.474;4.436;2023-06-14T15:14:07;35.05;19.45
78611;SHT30;67932;50.474;4.436;2023-06-14T15:16:35;34.87;19.48
78611;SHT30;67932;50.474;4.436;2023-06-14T15:19:04;34.63;19.84
78611;SHT30;67932;50.474;4.436;2023-06-14T15:21:37;34.77;19.80
78611;SHT30;67932;50.474;4.436;2023-06-14T15:24:04;34.79;19.20
78611;SHT30;67932;50.474;4.436;2023-06-14T15:26:50;34.86;19.96
78611;SHT30;67932;50.474;4.436;2023-06-14T15:29:39;35.02;19.21
78611;SHT30;67932;50.474;4.436;2023-06-14T15:32:06;34.33;20.20
78611;SHT30;67932;50.474;4.436;2023-06-14T15:34:33;34.41;19.38
78611;SHT30;67932;50.474;4.436;2023-06-14T15:36:59;34.23;19.41
78611;SHT30;67932;50.474;4.436;2023-06-14T15:39:26;34.46;19.38
78611;SHT30;67932;50.474;4.436;2023-06-14T15:41:57;34.47;19.45
78611;SHT30;67932;50.474;4.436;2023-06-14T15:44:23;34.61;19.04
78611;SHT30;67932;50.474;4.436;2023-06-14T15:46:50;34.53;19.05
78611;SHT30;67932;50.474;4.436;2023-06-14T15:49:16;34.35;19.46
78611;SHT30;67932;50.474;4.436;2023-06-14T15:51:43;34.21;19.38
78611;SHT30;67932;50.474;4.436;2023-06-14T15:54:10;34.47;19.97
78611;SHT30;67932;50.474;4.436;2023-06-14T15:56:36;34.13;19.51
78611;SHT30;67932;50.474;4.436;2023-06-14T15:59:03;34.35;19.72
78611;SHT30;67932;50.474;4.436;2023-06-14T16:01:30;33.92;19.43
78611;SHT30;67932;50.474;4.436;2023-06-14T16:03:57;34.21;19.34
78611;SHT30;67932;50.474;4.436;2023-06-14T16:06:23;34.05;19.43
78611;SHT30;67932;50.474;4.436;2023-06-14T16:08:50;34.37;19.16
78611;SHT30;67932;50.474;4.436;2023-06-14T16:11:18;34.09;19.81
78611;SHT30;67932;50.474;4.436;2023-06-14T16:13:46;33.62;19.88
78611;SHT30;67932;50.474;4.436;2023-06-14T16:16:12;34.06;19.83
78611;SHT30;67932;50.474;4.436;2023-06-14T16:18:40;33.75;19.83
78611;SHT30;67932;50.474;4.436;2023-06-14T16:21:07;33.59;20.28
78611;SHT30;67932;50.474;4.436;2023-06-14T16:23:35;33.51;19.99
78611;SHT30;67932;50.474;4.436;2023-06-14T16:26:01;32.67;20.82
78611;SHT30;67932;50.474;4.436;2023-06-14T16:28:30;32.58;21.41
78611;SHT30;67932;50.474;4.436;2023-06-14T16:31:00;31.89;21.99
78611;SHT30;67932;50.474;4.436;2023-06-14T16:33:26;31.45;22.66
78611;SHT30;67932;50.474;4.436;2023-06-14T16:35:53;30.89;23.29
78611;SHT30;67932;50.474;4.436;2023-06-14T16:38:20;30.60;24.08
78611;SHT30;67932;50.474;4.436;2023-06-14T16:40:47;30.31;23.75
78611;SHT30;67932;50.474;4.436;2023-06-14T16:43:14;30.14;24.55
78611;SHT30;67932;50.474;4.436;2023-06-14T16:45:41;29.86;24.82
78611;SHT30;67932;50.474;4.436;2023-06-14T16:48:07;29.70;25.25
78611;SHT30;67932;50.474;4.436;2023-06-14T16:50:33;29.53;24.98
78611;SHT30;67932;50.474;4.436;2023-06-14T16:53:09;29.49;25.50
78611;SHT30;67932;50.474;4.436;2023-06-14T16:55:36;29.48;25.55
78611;SHT30;67932;50.474;4.436;2023-06-14T16:58:03;29.14;26.13
78611;SHT30;67932;50.474;4.436;2023-06-14T17:00:30;29.09;25.75
78611;SHT30;67932;50.474;4.436;2023-06-14T17:02:56;29.18;26.24
78611;SHT30;67932;50.474;4.436;2023-06-14T17:05:25;29.05;26.63
78611;SHT30;67932;50.474;4.436;2023-06-14T17:07:53;28.91;26.22
78611;SHT30;67932;50.474;4.436;2023-06-14T17:10:20;28.78;26.55
78611;SHT30;67932;50.474;4.436;2023-06-14T17:12:46;28.71;26.97
78611;SHT30;67932;50.474;4.436;2023-06-14T17:15:13;28.61;26.63
78611;SHT30;67932;50.474;4.436;2023-06-14T17:17:39;28.13;26.62
78611;SHT30;67932;50.474;4.436;2023-06-14T17:20:06;28.32;26.94
78611;SHT30;67932;50.474;4.436;2023-06-14T17:22:34;28.45;26.58
78611;SHT30;67932;50.474;4.436;2023-06-14T17:25:01;28.24;27.07
78611;SHT30;67932;50.474;4.436;2023-06-14T17:27:27;28.10;27.38
78611;SHT30;67932;50.474;4.436;2023-06-14T17:29:53;27.93;27.62
78611;SHT30;67932;50.474;4.436;2023-06-14T17:32:20;28.14;27.59
78611;SHT30;67932;50.474;4.436;2023-06-14T17:34:46;27.96;26.96
78611;SHT30;67932;50.474;4.436;2023-06-14T17:37:13;27.73;27.84
78611;SHT30;67932;50.474;4.436;2023-06-14T17:39:39;27.67;27.89
78611;SHT30;67932;50.474;4.436;2023-06-14T17:42:07;27.66;28.14
78611;SHT30;67932;50.474;4.436;2023-06-14T17:44:34;27.93;27.92
78611;SHT30;67932;50.474;4.436;2023-06-14T17:47:01;27.60;28.37
78611;SHT30;67932;50.474;4.436;2023-06-14T17:49:27;27.50;28.58
78611;SHT30;67932;50.474;4.436;2023-06-14T17:51:56;27.43;28.99
78611;SHT30;67932;50.474;4.436;2023-06-14T17:54:23;27.31;28.82